In Rescue
 
Open Full Screen Window  High Contrast Mode
Wind Gusting 00 knots
04
September 21, 2020 11:31 PM EDT
Weather Information
Wind Direction
  150 °
Wind Speed
  04 kt (5 mph)
Wind Gust
  00 kt (0 mph)
Altimeter
30.21 in
Visibility
10 SM
Temperature
13° C
55° F
Dewpoint
08° C
46° F
Humidity
72%
Sky Condition
Clear
VFR

METAR KSLH 220331Z AUTO 15004KT 10SM CLR 13/08 A3021 RMK AO2 T01330078

FAA Disclaimer: The data displayed is for advisory purposes only and is not to be used for flight planning or operations.